sensor_id;sensor_type;location;lat;lon;timestamp;P1;durP1;ratioP1;P2;durP2;ratioP2
46633;SDS011;32362;49.986;8.026;2023-01-29T00:22:58;6.30;;;3.75;;
46633;SDS011;32362;49.986;8.026;2023-01-29T00:49:39;8.48;;;3.95;;
46633;SDS011;32362;49.986;8.026;2023-01-29T01:16:19;6.57;;;4.03;;
46633;SDS011;32362;49.986;8.026;2023-01-29T01:43:00;5.80;;;3.75;;
46633;SDS011;32362;49.986;8.026;2023-01-29T02:10:04;4.50;;;3.25;;
46633;SDS011;32362;49.986;8.026;2023-01-29T03:03:52;5.03;;;3.40;;
46633;SDS011;32362;49.986;8.026;2023-01-29T03:30:43;5.50;;;3.65;;
46633;SDS011;32362;49.986;8.026;2023-01-29T03:57:58;6.13;;;3.55;;
46633;SDS011;32362;49.986;8.026;2023-01-29T04:24:47;6.57;;;4.00;;
46633;SDS011;32362;49.986;8.026;2023-01-29T05:18:17;6.18;;;3.53;;
46633;SDS011;32362;49.986;8.026;2023-01-29T05:44:58;9.27;;;4.88;;
46633;SDS011;32362;49.986;8.026;2023-01-29T06:11:38;7.93;;;4.37;;
46633;SDS011;32362;49.986;8.026;2023-01-29T06:38:19;9.07;;;5.10;;
46633;SDS011;32362;49.986;8.026;2023-01-29T07:05:00;13.05;;;6.40;;
46633;SDS011;32362;49.986;8.026;2023-01-29T07:31:40;12.30;;;6.13;;
46633;SDS011;32362;49.986;8.026;2023-01-29T07:58:21;11.87;;;6.13;;
46633;SDS011;32362;49.986;8.026;2023-01-29T08:25:02;12.63;;;6.78;;
46633;SDS011;32362;49.986;8.026;2023-01-29T08:51:44;11.10;;;6.45;;
46633;SDS011;32362;49.986;8.026;2023-01-29T09:18:24;8.07;;;5.07;;
46633;SDS011;32362;49.986;8.026;2023-01-29T10:11:53;6.05;;;3.60;;
46633;SDS011;32362;49.986;8.026;2023-01-29T10:38:43;6.43;;;3.25;;
46633;SDS011;32362;49.986;8.026;2023-01-29T11:32:11;6.78;;;4.00;;
46633;SDS011;32362;49.986;8.026;2023-01-29T12:00:46;10.15;;;3.60;;
46633;SDS011;32362;49.986;8.026;2023-01-29T12:28:41;4.50;;;2.50;;
46633;SDS011;32362;49.986;8.026;2023-01-29T12:55:16;5.53;;;2.00;;
46633;SDS011;32362;49.986;8.026;2023-01-29T13:22:02;4.60;;;1.93;;
46633;SDS011;32362;49.986;8.026;2023-01-29T13:48:53;7.00;;;3.40;;
46633;SDS011;32362;49.986;8.026;2023-01-29T14:42:44;9.47;;;1.57;;
46633;SDS011;32362;49.986;8.026;2023-01-29T15:09:46;3.80;;;2.30;;
46633;SDS011;32362;49.986;8.026;2023-01-29T15:36:30;4.43;;;2.95;;
46633;SDS011;32362;49.986;8.026;2023-01-29T16:03:12;4.47;;;2.42;;
46633;SDS011;32362;49.986;8.026;2023-01-29T16:29:54;6.30;;;3.15;;
46633;SDS011;32362;49.986;8.026;2023-01-29T16:56:35;8.35;;;4.45;;
46633;SDS011;32362;49.986;8.026;2023-01-29T17:23:17;8.68;;;5.22;;
46633;SDS011;32362;49.986;8.026;2023-01-29T17:49:58;4.13;;;2.35;;
46633;SDS011;32362;49.986;8.026;2023-01-29T18:17:05;10.60;;;5.35;;
46633;SDS011;32362;49.986;8.026;2023-01-29T18:43:46;11.52;;;4.30;;
46633;SDS011;32362;49.986;8.026;2023-01-29T19:10:31;9.10;;;5.38;;
46633;SDS011;32362;49.986;8.026;2023-01-29T19:37:27;21.00;;;11.60;;
46633;SDS011;32362;49.986;8.026;2023-01-29T20:04:10;26.40;;;14.32;;
46633;SDS011;32362;49.986;8.026;2023-01-29T20:30:50;34.33;;;17.10;;
46633;SDS011;32362;49.986;8.026;2023-01-29T20:57:34;31.90;;;18.60;;
46633;SDS011;32362;49.986;8.026;2023-01-29T21:24:15;23.70;;;9.65;;
46633;SDS011;32362;49.986;8.026;2023-01-29T21:50:57;31.08;;;15.85;;
46633;SDS011;32362;49.986;8.026;2023-01-29T22:17:38;36.88;;;18.98;;
46633;SDS011;32362;49.986;8.026;2023-01-29T22:44:20;34.72;;;19.42;;
46633;SDS011;32362;49.986;8.026;2023-01-29T23:11:16;37.45;;;21.27;;
46633;SDS011;32362;49.986;8.026;2023-01-29T23:37:59;22.23;;;9.32;;
